Time;durP1;ratioP1;P1;durP2;ratioP2;P2;SDS_P1;SDS_P2;PMS_P1;PMS_P2;Temp;Humidity;BMP_temperature;BMP_pressure;BME280_temperature;BME280_humidity;BME280_pressure;Samples;Min_cycle;Max_cycle;Signal;HPM_P1;HPM_P2
2021/12/28 00:01:27;;;;;;;33.45;18.73;;;;;;;-5.91;84.45;100031.30;1660260;85;21115;-67
2021/12/28 00:03:56;;;;;;;35.35;17.07;;;;;;;-5.91;84.45;100033.98;1631550;86;21461;-65
2021/12/28 00:06:23;;;;;;;28.80;15.88;;;;;;;-5.90;84.39;100033.48;1652603;85;20996;-66
2021/12/28 00:08:50;;;;;;;30.45;16.20;;;;;;;-5.89;84.37;100029.25;1648178;86;21127;-65
2021/12/28 00:11:17;;;;;;;37.58;17.90;;;;;;;-5.88;84.37;100028.72;1647783;86;20969;-66
2021/12/28 00:13:47;;;;;;;34.85;17.17;;;;;;;-5.88;84.31;100022.00;1653626;83;20999;-66
2021/12/28 00:18:46;;;;;;;24.77;12.83;;;;;;;-5.88;84.33;100025.53;1656391;85;20865;-66
2021/12/28 00:21:14;;;;;;;27.13;16.02;;;;;;;-5.87;84.33;100025.83;1660015;85;22020;-66
2021/12/28 00:23:41;;;;;;;32.35;16.67;;;;;;;-5.87;84.32;100020.47;1659150;84;21545;-67
2021/12/28 00:26:11;;;;;;;31.82;16.48;;;;;;;-5.83;84.28;100022.77;1627838;86;20916;-67
2021/12/28 00:28:41;;;;;;;35.13;16.75;;;;;;;-5.83;84.26;100014.72;1659130;84;21460;-66
2021/12/28 00:31:11;;;;;;;29.63;16.87;;;;;;;-5.81;84.18;100013.98;1657804;85;21119;-67
2021/12/28 00:33:38;;;;;;;33.53;16.27;;;;;;;-5.81;84.17;100012.13;1663260;85;21171;-66
2021/12/28 00:36:05;;;;;;;27.67;15.88;;;;;;;-5.79;84.13;100011.94;1628541;85;21026;-67
2021/12/28 00:38:32;;;;;;;32.28;17.70;;;;;;;-5.78;84.13;100012.23;1665451;85;20979;-64
2021/12/28 00:41:03;;;;;;;37.45;18.12;;;;;;;-5.77;84.07;100007.20;1628077;85;21041;-65
2021/12/28 00:43:30;;;;;;;36.80;19.27;;;;;;;-5.77;84.08;100007.20;1666956;84;20993;-65
2021/12/28 00:45:57;;;;;;;44.77;19.48;;;;;;;-5.77;84.03;100006.70;1629912;85;21591;-66
2021/12/28 00:48:24;;;;;;;41.02;19.65;;;;;;;-5.78;83.97;100011.73;1660811;84;21079;-66
2021/12/28 00:50:52;;;;;;;41.88;20.25;;;;;;;-5.79;84.03;100006.06;1666734;84;21155;-66
2021/12/28 00:53:20;;;;;;;36.05;19.85;;;;;;;-5.78;84.07;100005.52;1631582;85;21564;-67
2021/12/28 00:55:46;;;;;;;43.33;19.45;;;;;;;-5.76;84.08;100012.37;1629172;87;21086;-65
2021/12/28 00:58:13;;;;;;;39.67;18.65;;;;;;;-5.75;83.97;100012.67;1627014;87;21066;-66
2021/12/28 01:00:41;;;;;;;37.73;19.80;;;;;;;-5.74;83.99;100006.80;1627775;87;21512;-66
2021/12/28 01:03:09;;;;;;;35.23;17.82;;;;;;;-5.72;83.96;100010.11;1668660;83;20972;-66
2021/12/28 01:05:38;;;;;;;33.63;17.15;;;;;;;-5.70;83.88;99997.83;1659711;84;21034;-67
2021/12/28 01:08:05;;;;;;;35.15;18.40;;;;;;;-5.71;83.74;100001.02;1665415;84;21035;-67
2021/12/28 01:10:36;;;;;;;36.28;18.07;;;;;;;-5.72;83.66;99995.34;1659028;84;21060;-66
2021/12/28 01:13:04;;;;;;;29.45;16.30;;;;;;;-5.74;83.61;99989.34;1631003;86;21075;-67
2021/12/28 01:15:31;;;;;;;31.77;15.40;;;;;;;-5.77;83.49;99998.64;1629433;86;21567;-66
2021/12/28 01:17:58;;;;;;;36.05;17.42;;;;;;;-5.78;83.47;100002.84;1651391;85;21087;-66
2021/12/28 01:20:25;;;;;;;28.38;15.00;;;;;;;-5.80;83.37;100007.06;1655050;86;21031;-67
2021/12/28 01:22:53;;;;;;;32.33;16.62;;;;;;;-5.80;83.35;100007.60;1662798;84;21098;-66
2021/12/28 01:25:20;;;;;;;32.17;16.73;;;;;;;-5.83;83.24;100001.30;1659198;84;20952;-66
2021/12/28 01:27:48;;;;;;;30.88;16.67;;;;;;;-5.84;83.26;100003.14;1635155;85;20984;-66
2021/12/28 01:30:16;;;;;;;35.75;16.48;;;;;;;-5.83;83.24;99999.42;1664220;84;20940;-66
2021/12/28 01:32:45;;;;;;;38.90;17.40;;;;;;;-5.82;83.16;100002.94;1631165;86;21059;-67
2021/12/28 01:35:14;;;;;;;36.80;16.57;;;;;;;-5.84;83.10;99995.09;1665937;85;21136;-65
2021/12/28 01:37:41;;;;;;;39.98;19.48;;;;;;;-5.84;83.06;99996.94;1667484;84;21124;-66
2021/12/28 01:40:10;;;;;;;35.30;15.95;;;;;;;-5.86;83.05;99997.98;1666300;85;21069;-65
2021/12/28 01:42:59;;;;;;;37.25;17.80;;;;;;;-5.85;83.08;99996.09;1665228;85;20996;-66
2021/12/28 01:45:37;;;;;;;35.40;16.95;;;;;;;-5.85;83.06;99997.44;1662490;84;21047;-66
2021/12/28 01:48:08;;;;;;;36.98;17.62;;;;;;;-5.87;83.12;99993.61;1658100;84;21194;-67
2021/12/28 01:50:37;;;;;;;35.00;18.27;;;;;;;-5.84;83.16;99990.22;1658981;84;21076;-65
2021/12/28 01:53:05;;;;;;;42.33;18.87;;;;;;;-5.82;83.15;99989.02;1686855;83;21073;-64
2021/12/28 01:55:35;;;;;;;38.73;18.45;;;;;;;-5.83;83.01;99985.99;1690189;84;21009;-67
2021/12/28 01:58:03;;;;;;;43.02;19.05;;;;;;;-5.83;82.95;99987.88;1690686;84;21079;-66
2021/12/28 02:00:33;;;;;;;34.08;17.85;;;;;;;-5.83;83.09;99983.84;1691632;84;21118;-66
2021/12/28 02:02:59;;;;;;;48.95;20.75;;;;;;;-5.82;83.00;99981.46;1691319;82;20908;-66
2021/12/28 02:05:25;;;;;;;36.38;18.90;;;;;;;-5.83;82.91;99981.97;1664592;84;21662;-67
2021/12/28 02:07:52;;;;;;;33.15;17.85;;;;;;;-5.83;82.91;99996.73;1654928;84;21186;-66
2021/12/28 02:10:18;;;;;;;43.73;21.62;;;;;;;-5.83;82.93;100003.98;1689966;83;21087;-66
2021/12/28 02:12:46;;;;;;;37.45;19.42;;;;;;;-5.84;82.91;99991.56;1655426;84;22480;-66
2021/12/28 02:15:12;;;;;;;39.40;18.27;;;;;;;-5.84;82.95;99984.34;1687845;83;21140;-66
2021/12/28 02:17:41;;;;;;;41.40;22.27;;;;;;;-5.82;82.95;99993.55;1689456;83;21464;-67
2021/12/28 02:20:17;;;;;;;38.83;20.35;;;;;;;-5.84;82.87;99984.85;1688264;83;21032;-66
2021/12/28 02:22:45;;;;;;;34.67;17.60;;;;;;;-5.84;82.83;99992.41;1689394;83;21414;-66
2021/12/28 02:25:12;;;;;;;37.60;19.30;;;;;;;-5.86;82.82;99988.58;1692329;83;21115;-67
2021/12/28 02:27:40;;;;;;;32.65;17.35;;;;;;;-5.88;82.78;99988.45;1686398;83;20969;-67
2021/12/28 02:30:13;;;;;;;40.85;18.75;;;;;;;-5.89;82.86;99988.98;1664958;84;21083;-67
2021/12/28 02:32:41;;;;;;;31.03;19.33;;;;;;;-5.89;82.85;99984.12;1696459;83;21425;-66
2021/12/28 02:35:11;;;;;;;40.12;20.00;;;;;;;-5.88;82.93;99975.02;1698072;84;20948;-65
2021/12/28 02:37:39;;;;;;;34.40;17.02;;;;;;;-5.87;82.82;99969.45;1692697;82;21439;-67
2021/12/28 02:40:06;;;;;;;33.70;18.02;;;;;;;-5.87;82.79;99965.42;1693554;84;21214;-67
2021/12/28 02:42:35;;;;;;;38.15;19.02;;;;;;;-5.87;82.77;99959.25;1665113;84;21130;-66
2021/12/28 02:45:10;;;;;;;46.10;20.25;;;;;;;-5.88;82.74;99948.17;1695513;84;21085;-64
2021/12/28 02:47:40;;;;;;;44.42;21.15;;;;;;;-5.86;82.81;99952.84;1693810;84;20972;-66
2021/12/28 02:50:11;;;;;;;33.58;17.73;;;;;;;-5.86;82.78;99961.73;1692221;84;21112;-65
2021/12/28 02:52:37;;;;;;;37.67;17.70;;;;;;;-5.87;82.66;99957.38;1692323;84;21092;-64
2021/12/28 02:55:08;;;;;;;39.98;19.37;;;;;;;-5.88;82.65;99953.55;1692184;83;21070;-67
2021/12/28 02:57:36;;;;;;;35.55;18.30;;;;;;;-5.88;82.69;99949.02;1694066;84;21044;-66
2021/12/28 03:00:05;;;;;;;41.18;19.42;;;;;;;-5.88;82.63;99946.84;1695307;84;21588;-66
2021/12/28 03:02:32;;;;;;;34.80;18.57;;;;;;;-5.90;82.57;99948.91;1688443;83;21137;-66
2021/12/28 03:04:59;;;;;;;41.98;18.92;;;;;;;-5.90;82.56;99953.75;1686727;83;20903;-66
2021/12/28 03:07:30;;;;;;;36.38;18.27;;;;;;;-5.90;82.54;99946.23;1695574;83;21031;-66
2021/12/28 03:09:59;;;;;;;41.50;19.02;;;;;;;-5.89;82.54;99942.00;1692757;83;20953;-67
2021/12/28 03:12:27;;;;;;;35.13;19.52;;;;;;;-5.89;82.45;99937.14;1685763;82;21075;-68
2021/12/28 03:14:54;;;;;;;38.42;18.80;;;;;;;-5.89;82.45;99942.00;1689470;82;21263;-66
2021/12/28 03:17:20;;;;;;;39.75;18.73;;;;;;;-5.89;82.42;99951.91;1684606;82;20961;-67
2021/12/28 03:19:46;;;;;;;39.65;18.50;;;;;;;-5.91;82.44;99945.39;1694652;83;21041;-67
2021/12/28 03:22:15;;;;;;;36.05;18.57;;;;;;;-5.91;82.52;99944.05;1665060;83;20979;-66
2021/12/28 03:24:42;;;;;;;33.67;18.10;;;;;;;-5.89;82.45;99937.14;1692323;83;21114;-66
2021/12/28 03:27:08;;;;;;;32.33;17.37;;;;;;;-5.87;82.44;99936.43;1663361;84;21816;-64
2021/12/28 03:29:35;;;;;;;45.65;20.12;;;;;;;-5.88;82.35;99947.67;1687941;83;21470;-66
2021/12/28 03:32:02;;;;;;;42.30;19.37;;;;;;;-5.88;82.32;99943.64;1687069;83;21020;-65
2021/12/28 03:34:31;;;;;;;37.75;18.23;;;;;;;-5.88;82.33;99937.44;1689331;84;21107;-65
2021/12/28 03:37:00;;;;;;;34.67;19.15;;;;;;;-5.89;82.23;99942.00;1690636;83;21556;-66
2021/12/28 03:39:31;;;;;;;37.15;19.27;;;;;;;-5.88;82.30;99942.81;1685646;83;20913;-66
2021/12/28 03:41:58;;;;;;;35.05;19.12;;;;;;;-5.87;82.23;99941.80;1689850;83;20939;-66
2021/12/28 03:44:24;;;;;;;30.80;15.68;;;;;;;-5.89;82.20;99940.66;1698564;83;21032;-67
2021/12/28 03:46:52;;;;;;;31.52;16.87;;;;;;;-5.91;82.12;99941.37;1687689;83;20964;-66
2021/12/28 03:49:20;;;;;;;34.70;17.77;;;;;;;-5.92;82.06;99937.55;1678372;82;20973;-66
2021/12/28 03:51:46;;;;;;;38.35;16.93;;;;;;;-5.92;82.12;99928.15;1713537;83;21880;-66
2021/12/28 03:54:13;;;;;;;30.72;17.90;;;;;;;-5.92;81.95;99924.92;1694435;83;21105;-66
2021/12/28 03:56:39;;;;;;;34.90;17.07;;;;;;;-5.93;81.92;99925.97;1690135;83;20904;-66
2021/12/28 03:59:05;;;;;;;34.70;16.70;;;;;;;-5.95;81.85;99936.61;1699311;83;21529;-67
2021/12/28 04:01:34;;;;;;;37.67;18.92;;;;;;;-5.95;81.95;99941.44;1701069;83;21237;-66
2021/12/28 04:04:01;;;;;;;39.00;18.00;;;;;;;-5.94;81.97;99929.69;1666251;83;21577;-63
2021/12/28 04:06:30;;;;;;;35.55;17.12;;;;;;;-5.94;81.96;99923.48;1705213;82;20978;-65
2021/12/28 04:09:02;;;;;;;35.73;18.17;;;;;;;-5.92;81.91;99931.64;1692966;83;20980;-67
2021/12/28 04:11:31;;;;;;;38.42;17.20;;;;;;;-5.92;81.84;99931.64;1687232;83;20969;-65
2021/12/28 04:14:02;;;;;;;34.38;17.67;;;;;;;-5.91;81.76;99934.66;1685254;83;20954;-66
2021/12/28 04:16:28;;;;;;;34.53;17.92;;;;;;;-5.92;81.73;99928.95;1687336;83;21067;-67
2021/12/28 04:18:57;;;;;;;35.15;17.82;;;;;;;-5.93;81.60;99931.84;1692384;82;21012;-65
2021/12/28 04:21:24;;;;;;;35.15;16.97;;;;;;;-5.95;81.64;99926.67;1696084;83;21012;-67
2021/12/28 04:23:52;;;;;;;36.55;17.45;;;;;;;-5.97;81.60;99929.27;1690632;83;20961;-65
2021/12/28 04:26:19;;;;;;;36.17;17.87;;;;;;;-5.97;81.63;99922.02;1673967;84;20945;-67
2021/12/28 04:28:48;;;;;;;32.75;17.55;;;;;;;-5.95;81.70;99925.34;1664444;85;20954;-67
2021/12/28 04:31:14;;;;;;;33.90;16.52;;;;;;;-5.91;81.70;99923.08;1660034;85;20988;-67
2021/12/28 04:33:43;;;;;;;38.30;17.17;;;;;;;-5.91;81.55;99921.73;1654169;85;21051;-67
2021/12/28 04:36:14;;;;;;;37.67;18.07;;;;;;;-5.92;81.41;99919.56;1673570;85;22535;-67
2021/12/28 04:38:42;;;;;;;33.02;18.23;;;;;;;-5.91;81.36;99926.60;1664337;84;21080;-67
2021/12/28 04:41:11;;;;;;;41.28;17.32;;;;;;;-5.92;81.25;99920.90;1680871;83;21162;-67
2021/12/28 04:43:40;;;;;;;36.30;16.82;;;;;;;-5.95;81.18;99917.28;1684049;83;21016;-65
2021/12/28 04:46:09;;;;;;;35.23;17.32;;;;;;;-5.96;81.12;99919.66;1696436;83;21091;-66
2021/12/28 04:48:37;;;;;;;44.63;21.33;;;;;;;-5.97;81.15;99917.98;1703389;83;20938;-67
2021/12/28 04:51:05;;;;;;;41.83;19.90;;;;;;;-5.97;81.15;99927.38;1699067;83;20979;-67
2021/12/28 04:53:35;;;;;;;34.25;18.90;;;;;;;-5.96;81.05;99927.72;1699456;82;23387;-65
2021/12/28 04:56:23;;;;;;;34.80;18.27;;;;;;;-5.96;80.92;99933.09;1702869;84;21001;-65
2021/12/28 04:58:51;;;;;;;40.10;17.90;;;;;;;-5.98;80.83;99937.82;1674696;85;20937;-65
2021/12/28 05:01:18;;;;;;;38.75;20.20;;;;;;;-5.99;80.80;99942.89;1682144;84;21025;-67
2021/12/28 05:03:46;;;;;;;35.85;19.32;;;;;;;-6.02;80.76;99937.39;1695047;84;20977;-66
2021/12/28 05:06:14;;;;;;;38.33;19.70;;;;;;;-6.03;80.81;99939.77;1668645;84;21149;-67
2021/12/28 05:08:41;;;;;;;42.20;19.70;;;;;;;-6.03;80.71;99929.54;1699429;83;21011;-67
2021/12/28 05:11:08;;;;;;;44.35;21.02;;;;;;;-6.03;80.72;99940.27;1713724;83;21013;-65
2021/12/28 05:13:36;;;;;;;43.90;19.87;;;;;;;-6.04;80.66;99932.73;1717367;82;21056;-66
2021/12/28 05:16:02;;;;;;;41.45;19.23;;;;;;;-6.02;80.65;99932.55;1717631;82;21091;-67
2021/12/28 05:18:29;;;;;;;37.15;19.67;;;;;;;-6.03;80.68;99930.88;1718569;82;21136;-64
2021/12/28 05:20:55;;;;;;;39.92;20.25;;;;;;;-6.01;80.56;99934.20;1718486;82;21486;-67
2021/12/28 05:23:22;;;;;;;42.17;19.07;;;;;;;-6.01;80.49;99936.88;1716556;83;20989;-67
2021/12/28 05:25:48;;;;;;;41.88;19.32;;;;;;;-6.01;80.44;99928.83;1721132;82;21052;-67
2021/12/28 05:28:14;;;;;;;41.68;19.70;;;;;;;-6.02;80.30;99927.19;1713286;82;21017;-66
2021/12/28 05:30:42;;;;;;;37.23;18.30;;;;;;;-6.06;80.12;99925.95;1717951;82;21871;-67
2021/12/28 05:33:08;;;;;;;41.77;21.75;;;;;;;-6.09;80.14;99924.51;1720411;82;21400;-67
2021/12/28 05:35:35;;;;;;;40.65;18.42;;;;;;;-6.11;80.21;99926.02;1719346;82;20993;-67
2021/12/28 05:38:03;;;;;;;41.13;21.12;;;;;;;-6.11;80.11;99927.36;1716892;82;21469;-64
2021/12/28 05:40:29;;;;;;;44.98;21.52;;;;;;;-6.13;80.01;99929.44;1716037;83;21521;-67
2021/12/28 05:42:56;;;;;;;38.30;19.65;;;;;;;-6.15;79.99;99930.14;1715386;82;21138;-68
2021/12/28 05:45:22;;;;;;;40.33;20.40;;;;;;;-6.15;79.98;99927.97;1712871;83;20924;-68
2021/12/28 05:47:50;;;;;;;41.00;21.57;;;;;;;-6.17;79.89;99922.80;1715863;83;21214;-67
2021/12/28 05:50:17;;;;;;;45.52;22.05;;;;;;;-6.17;79.81;99925.98;1719681;82;20928;-67
2021/12/28 05:52:43;;;;;;;49.50;22.13;;;;;;;-6.17;79.75;99919.28;1718013;83;21101;-67
2021/12/28 05:55:10;;;;;;;45.43;23.25;;;;;;;-6.19;79.71;99921.36;1715728;83;21517;-65
2021/12/28 05:57:36;;;;;;;44.80;22.25;;;;;;;-6.19;79.75;99922.70;1720530;82;21141;-67
2021/12/28 06:00:08;;;;;;;42.90;20.30;;;;;;;-6.21;79.51;99932.30;1715617;83;21001;-65
2021/12/28 06:02:35;;;;;;;42.08;21.77;;;;;;;-6.24;79.56;99938.87;1717963;82;21455;-66
2021/12/28 06:05:01;;;;;;;42.78;21.33;;;;;;;-6.25;79.58;99941.25;1715795;82;20957;-65
2021/12/28 06:07:28;;;;;;;46.33;22.85;;;;;;;-6.25;79.58;99946.62;1713460;82;21138;-64
2021/12/28 06:09:55;;;;;;;44.25;21.25;;;;;;;-6.24;79.66;99952.79;1713497;83;21489;-65
2021/12/28 06:12:23;;;;;;;63.58;24.80;;;;;;;-6.24;79.59;99952.28;1716308;83;20953;-66
2021/12/28 06:14:51;;;;;;;60.63;24.12;;;;;;;-6.25;79.53;99947.13;1719471;82;20939;-66
2021/12/28 06:17:17;;;;;;;66.95;28.77;;;;;;;-6.26;79.52;99948.97;1717025;82;21055;-67
2021/12/28 06:19:43;;;;;;;63.75;25.68;;;;;;;-6.26;79.52;99944.13;1714881;82;21584;-66
2021/12/28 06:22:10;;;;;;;55.95;25.27;;;;;;;-6.25;79.61;99944.44;1714745;83;21128;-67
2021/12/28 06:24:36;;;;;;;51.45;22.58;;;;;;;-6.26;79.61;99943.59;1715715;82;21051;-63
2021/12/28 06:27:03;;;;;;;60.70;24.35;;;;;;;-6.25;79.57;99942.59;1720480;83;21154;-67
2021/12/28 06:29:29;;;;;;;57.48;24.02;;;;;;;-6.23;79.53;99949.09;1719385;82;21453;-67
2021/12/28 06:31:57;;;;;;;46.45;22.62;;;;;;;-6.24;79.50;99946.92;1714283;83;21149;-64
2021/12/28 06:34:25;;;;;;;50.25;24.27;;;;;;;-6.26;79.37;99947.63;1713536;83;20971;-66
2021/12/28 06:36:53;;;;;;;45.00;21.77;;;;;;;-6.26;79.39;99948.16;1713001;82;20987;-65
2021/12/28 06:39:20;;;;;;;57.50;25.52;;;;;;;-6.25;79.45;99951.98;1715083;83;21068;-67
2021/12/28 06:41:48;;;;;;;53.33;24.18;;;;;;;-6.24;79.44;99950.94;1717091;82;20885;-65
2021/12/28 06:44:14;;;;;;;47.38;21.80;;;;;;;-6.22;79.36;99950.74;1720507;83;23309;-66
2021/12/28 06:46:41;;;;;;;44.63;22.37;;;;;;;-6.23;79.29;99944.54;1719785;82;20989;-67
2021/12/28 06:49:07;;;;;;;56.65;24.72;;;;;;;-6.20;79.35;99947.36;1719538;82;21194;-66
2021/12/28 06:51:34;;;;;;;53.65;24.57;;;;;;;-6.19;79.34;99945.51;1718073;83;21573;-67
2021/12/28 06:54:00;;;;;;;54.33;24.65;;;;;;;-6.17;79.23;99949.64;1718579;83;21052;-67
2021/12/28 06:56:26;;;;;;;53.00;24.55;;;;;;;-6.16;79.01;99947.79;1712841;83;21477;-65
2021/12/28 06:58:53;;;;;;;51.75;23.10;;;;;;;-6.17;78.96;99942.09;1720024;83;20989;-66
2021/12/28 07:01:19;;;;;;;54.38;23.22;;;;;;;-6.17;78.98;99945.61;1718618;82;21534;-65
2021/12/28 07:03:46;;;;;;;45.30;22.50;;;;;;;-6.16;78.98;99945.91;1719605;82;21047;-66
2021/12/28 07:06:16;;;;;;;51.92;23.70;;;;;;;-6.15;78.95;99956.14;1687758;83;21496;-65
2021/12/28 07:08:43;;;;;;;55.65;24.70;;;;;;;-6.15;78.88;99955.64;1716898;82;21430;-67
2021/12/28 07:11:10;;;;;;;52.80;26.10;;;;;;;-6.14;78.75;99952.45;1720117;83;20972;-66
2021/12/28 07:13:37;;;;;;;56.02;24.15;;;;;;;-6.14;78.73;99942.52;1713968;82;21039;-68
2021/12/28 07:16:05;;;;;;;55.70;23.07;;;;;;;-6.13;78.61;99932.13;1715952;82;21504;-67
2021/12/28 07:18:31;;;;;;;49.45;24.25;;;;;;;-6.13;78.34;99933.47;1716853;82;21140;-66
2021/12/28 07:20:58;;;;;;;54.65;25.35;;;;;;;-6.14;78.32;99937.69;1717756;82;21148;-66
2021/12/28 07:23:25;;;;;;;50.43;24.95;;;;;;;-6.13;78.30;99929.95;1717224;82;21035;-67
2021/12/28 07:25:53;;;;;;;55.92;27.50;;;;;;;-6.11;78.25;99932.73;1718303;82;21552;-65
2021/12/28 07:28:23;;;;;;;52.50;22.32;;;;;;;-6.11;78.26;99939.44;1718531;82;20954;-67
2021/12/28 07:30:49;;;;;;;49.93;23.32;;;;;;;-6.08;78.20;99934.70;1716753;83;20953;-67
2021/12/28 07:33:17;;;;;;;50.00;23.20;;;;;;;-6.05;78.18;99927.09;1714449;83;21006;-67
2021/12/28 07:35:46;;;;;;;51.02;24.72;;;;;;;-6.03;78.08;99922.83;1716183;83;20981;-66
2021/12/28 07:38:12;;;;;;;46.45;23.18;;;;;;;-6.02;78.04;99913.77;1716832;82;21421;-65
2021/12/28 07:40:39;;;;;;;47.88;23.10;;;;;;;-6.01;78.02;99910.05;1705752;82;21665;-66
2021/12/28 07:43:05;;;;;;;47.48;23.00;;;;;;;-6.00;78.01;99904.98;1718764;83;21170;-67
2021/12/28 07:45:31;;;;;;;45.65;22.58;;;;;;;-5.95;77.90;99901.17;1713996;81;21462;-66
2021/12/28 07:47:59;;;;;;;44.55;21.87;;;;;;;-5.90;77.69;99909.45;1715876;82;20964;-67
2021/12/28 07:50:27;;;;;;;45.30;22.40;;;;;;;-5.89;77.53;99904.42;1719244;82;20964;-67
2021/12/28 07:52:55;;;;;;;43.73;22.73;;;;;;;-5.88;77.29;99906.56;1713096;82;21085;-62
2021/12/28 07:55:21;;;;;;;44.33;22.10;;;;;;;-5.89;77.24;99908.44;1716938;82;21011;-66
2021/12/28 07:57:48;;;;;;;47.78;21.27;;;;;;;-5.87;77.27;99911.73;1713065;82;21186;-65
2021/12/28 08:00:17;;;;;;;50.35;23.35;;;;;;;-5.85;77.10;99906.16;1720054;82;20973;-64
2021/12/28 08:02:45;;;;;;;45.40;21.95;;;;;;;-5.80;77.04;99903.70;1691239;83;20977;-66
2021/12/28 08:05:15;;;;;;;52.25;23.50;;;;;;;-5.75;76.86;99902.58;1712219;82;20985;-66
2021/12/28 08:07:42;;;;;;;42.35;20.43;;;;;;;-5.71;76.72;99907.03;1713381;83;21047;-66
2021/12/28 08:10:13;;;;;;;39.88;20.55;;;;;;;-5.66;76.58;99907.76;1707751;83;20956;-67
2021/12/28 08:12:41;;;;;;;46.58;22.70;;;;;;;-5.63;76.30;99902.81;1712103;83;20889;-67
2021/12/28 08:15:08;;;;;;;44.95;23.15;;;;;;;-5.62;75.88;99895.09;1713910;83;21087;-66
2021/12/28 08:17:37;;;;;;;48.00;21.75;;;;;;;-5.60;75.79;99897.56;1713687;83;20969;-67
2021/12/28 08:20:07;;;;;;;49.25;24.18;;;;;;;-5.57;75.79;99903.03;1712196;83;21021;-66
2021/12/28 08:22:35;;;;;;;44.42;21.35;;;;;;;-5.58;75.41;99896.85;1714278;82;21241;-67
2021/12/28 08:25:01;;;;;;;46.15;21.57;;;;;;;-5.57;75.11;99896.31;1713145;83;21029;-67
2021/12/28 08:27:28;;;;;;;47.65;23.50;;;;;;;-5.58;74.92;99894.17;1713007;83;21075;-65
2021/12/28 08:29:56;;;;;;;44.13;20.48;;;;;;;-5.57;74.83;99887.75;1663384;83;20989;-65
2021/12/28 08:32:25;;;;;;;50.03;22.48;;;;;;;-5.59;74.63;99876.38;1711846;83;21117;-66
2021/12/28 08:34:51;;;;;;;41.63;20.90;;;;;;;-5.59;74.41;99883.60;1712671;83;21130;-67
2021/12/28 08:37:23;;;;;;;44.58;21.02;;;;;;;-5.62;74.18;99886.19;1711821;83;21087;-66
2021/12/28 08:39:49;;;;;;;46.45;22.13;;;;;;;-5.63;74.22;99880.52;1712293;83;21493;-66
2021/12/28 08:42:17;;;;;;;40.23;21.48;;;;;;;-5.62;74.34;99881.66;1710622;82;21036;-67
2021/12/28 08:44:43;;;;;;;47.80;21.77;;;;;;;-5.57;74.29;99874.33;1711846;83;20901;-65
2021/12/28 08:47:11;;;;;;;40.83;21.57;;;;;;;-5.54;74.20;99882.47;1711057;83;21058;-67
2021/12/28 08:49:37;;;;;;;42.20;22.70;;;;;;;-5.52;73.92;99881.76;1714274;83;21217;-67
2021/12/28 08:52:04;;;;;;;43.63;20.82;;;;;;;-5.50;73.95;99868.95;1711420;83;21556;-66
2021/12/28 08:54:30;;;;;;;46.75;22.27;;;;;;;-5.47;73.85;99874.42;1709521;83;21044;-67
2021/12/28 08:56:59;;;;;;;46.08;21.45;;;;;;;-5.43;73.79;99868.45;1710982;83;20969;-66
2021/12/28 08:59:25;;;;;;;43.55;21.85;;;;;;;-5.36;73.64;99859.05;1714450;83;21150;-67
2021/12/28 09:01:56;;;;;;;45.28;21.25;;;;;;;-5.31;73.48;99855.74;1711806;83;20960;-65
2021/12/28 09:04:21;;;;;;;50.08;22.93;;;;;;;-5.28;73.27;99857.50;1711427;83;21497;-67
2021/12/28 09:06:50;;;;;;;46.00;20.52;;;;;;;-5.25;72.89;99850.88;1712966;82;21563;-65
2021/12/28 09:09:18;;;;;;;42.33;19.90;;;;;;;-5.22;72.72;99856.37;1713290;83;21192;-67
2021/12/28 09:11:46;;;;;;;49.18;22.85;;;;;;;-5.20;72.64;99858.34;1713258;83;21504;-67
2021/12/28 09:14:12;;;;;;;45.43;22.15;;;;;;;-5.16;72.72;99850.16;1713529;83;21047;-67
2021/12/28 09:16:39;;;;;;;51.53;21.20;;;;;;;-5.12;72.31;99847.38;1707174;83;21090;-67
2021/12/28 09:19:08;;;;;;;41.48;20.40;;;;;;;-5.10;72.01;99841.79;1712074;83;21508;-69
2021/12/28 09:21:34;;;;;;;51.05;22.48;;;;;;;-5.07;71.81;99839.52;1711363;83;20952;-68
2021/12/28 09:24:02;;;;;;;40.50;19.37;;;;;;;-5.06;71.71;99829.06;1713209;83;23293;-66
2021/12/28 09:26:37;;;;;;;52.95;20.37;;;;;;;-5.04;71.56;99828.34;1714192;83;20944;-67
2021/12/28 09:29:05;;;;;;;46.08;21.23;;;;;;;-5.02;71.38;99826.27;1710575;83;21505;-67
2021/12/28 09:31:33;;;;;;;46.35;21.33;;;;;;;-5.02;70.83;99822.75;1712190;83;21270;-67
2021/12/28 09:34:01;;;;;;;44.38;20.48;;;;;;;-5.07;70.71;99829.27;1707352;83;20976;-67
2021/12/28 09:36:28;;;;;;;48.00;21.25;;;;;;;-5.08;70.69;99821.72;1712828;83;21897;-65
2021/12/28 09:38:59;;;;;;;50.92;22.15;;;;;;;-5.06;70.58;99818.81;1712792;83;20944;-68
2021/12/28 09:41:25;;;;;;;36.68;19.35;;;;;;;-5.09;70.31;99818.73;1712210;83;21020;-67
2021/12/28 09:43:53;;;;;;;43.10;21.23;;;;;;;-5.10;70.18;99814.38;1712943;83;21581;-67
2021/12/28 09:46:23;;;;;;;48.10;22.62;;;;;;;-5.10;69.80;99812.22;1712892;83;21512;-67
2021/12/28 09:48:49;;;;;;;41.85;20.15;;;;;;;-5.16;69.44;99814.70;1711818;83;21190;-66
2021/12/28 09:51:16;;;;;;;52.10;21.48;;;;;;;-5.22;69.28;99805.31;1712959;83;21582;-65
2021/12/28 09:53:43;;;;;;;41.50;21.52;;;;;;;-5.30;69.15;99807.16;1714517;82;21048;-65
2021/12/28 09:56:12;;;;;;;43.50;21.68;;;;;;;-5.34;69.50;99808.63;1713508;83;21939;-66
2021/12/28 09:58:40;;;;;;;51.70;22.35;;;;;;;-5.32;69.69;99808.42;1685221;83;21082;-66
2021/12/28 10:01:08;;;;;;;42.62;21.30;;;;;;;-5.30;69.70;99800.95;1710618;83;21205;-69
2021/12/28 10:03:35;;;;;;;48.28;20.43;;;;;;;-5.29;69.70;99803.44;1712869;83;20964;-67
2021/12/28 10:06:21;;;;;;;45.33;21.25;;;;;;;-5.24;69.59;99802.83;1713118;82;21016;-66
2021/12/28 10:09:04;;;;;;;43.50;19.82;;;;;;;-5.21;69.57;99805.61;1710617;83;21445;-67
2021/12/28 10:11:35;;;;;;;46.25;20.72;;;;;;;-5.16;69.69;99803.95;1712318;83;21008;-68
2021/12/28 10:14:21;;;;;;;48.48;21.17;;;;;;;-5.12;69.68;99804.37;1713956;83;21109;-66
2021/12/28 10:16:54;;;;;;;45.38;20.20;;;;;;;-5.07;69.56;99805.08;1711356;83;21098;-66
2021/12/28 10:19:44;;;;;;;43.98;21.00;;;;;;;-5.05;69.35;99805.70;1710846;83;20988;-68
2021/12/28 10:22:28;;;;;;;43.28;20.60;;;;;;;-5.04;68.96;99803.31;1712899;83;21457;-68
2021/12/28 10:25:11;;;;;;;42.67;20.00;;;;;;;-5.05;68.90;99798.98;1709767;83;20956;-67
2021/12/28 10:27:40;;;;;;;;;;;;;;;-5.05;68.95;99794.41;1715358;83;21065;-66
2021/12/28 10:30:16;;;;;;;55.80;20.12;;;;;;;-5.05;68.83;99794.95;1711093;83;20124;-68
2021/12/28 10:32:45;;;;;;;44.35;19.85;;;;;;;-5.04;68.59;99788.52;1711496;82;21008;-67
2021/12/28 10:35:25;;;;;;;43.83;20.90;;;;;;;-5.04;68.49;99785.84;1713546;83;21445;-67
2021/12/28 10:37:57;;;;;;;45.33;19.98;;;;;;;-5.06;68.54;99780.67;1712654;83;20944;-66
2021/12/28 10:40:31;;;;;;;54.18;20.90;;;;;;;-5.05;68.59;99776.94;1713536;82;21169;-68
2021/12/28 10:43:11;;;;;;;49.25;21.48;;;;;;;-5.04;68.46;99776.43;1710879;83;21124;-66
2021/12/28 10:45:49;;;;;;;48.78;20.57;;;;;;;-5.01;68.57;99782.72;1711118;83;21100;-66
2021/12/28 10:48:23;;;;;;;41.95;21.40;;;;;;;-4.99;68.42;99780.66;1711981;83;20956;-67
2021/12/28 10:50:59;;;;;;;40.20;19.50;;;;;;;-4.97;68.18;99780.45;1713424;83;21079;-66
2021/12/28 10:53:33;;;;;;;44.10;20.15;;;;;;;-4.98;68.05;99769.39;1666153;83;21864;-66
2021/12/28 10:55:58;;;;;;;47.88;21.23;;;;;;;-4.98;67.98;99774.23;1712022;83;20965;-64
2021/12/28 10:58:39;;;;;;;44.85;19.77;;;;;;;-4.98;68.00;99764.02;1711825;83;20989;-67
2021/12/28 11:01:08;;;;;;;47.15;20.65;;;;;;;-4.98;67.65;99764.02;1711314;83;21536;-67
2021/12/28 11:03:35;;;;;;;35.73;18.37;;;;;;;-5.01;67.50;99756.67;1711851;83;21021;-66
2021/12/28 11:06:17;;;;;;;43.15;20.12;;;;;;;-5.05;67.13;99760.00;1711567;82;22154;-65
2021/12/28 11:08:46;;;;;;;45.00;21.60;;;;;;;-5.08;66.91;99769.30;1711874;83;21599;-67
2021/12/28 11:11:15;;;;;;;47.62;21.02;;;;;;;-5.11;66.40;99762.17;1711605;83;20925;-64
2021/12/28 11:13:42;;;;;;;45.15;20.48;;;;;;;-5.16;66.48;99764.15;1714473;83;21044;-67
2021/12/28 11:16:12;;;;;;;51.20;21.10;;;;;;;-5.18;66.61;99768.91;1710613;83;20957;-66
2021/12/28 11:18:46;;;;;;;42.10;19.80;;;;;;;-5.15;66.66;99770.66;1710020;83;20984;-66
2021/12/28 11:21:22;;;;;;;44.42;18.77;;;;;;;-5.14;66.74;99767.46;1712405;83;21678;-68
2021/12/28 11:23:54;;;;;;;47.48;19.73;;;;;;;-5.12;66.91;99772.12;1712825;83;21072;-64
2021/12/28 11:26:28;;;;;;;41.03;19.10;;;;;;;-5.10;66.80;99765.98;1712912;83;21044;-67